sensor_id;sensor_type;location;lat;lon;timestamp;temperature;humidity
17425;DHT22;8830;50.978;5.058;2023-05-07T00:00:03;15.40;99.90
17425;DHT22;8830;50.978;5.058;2023-05-07T00:02:33;15.40;99.90
17425;DHT22;8830;50.978;5.058;2023-05-07T00:05:00;15.50;99.90
17425;DHT22;8830;50.978;5.058;2023-05-07T00:07:29;15.60;99.90
17425;DHT22;8830;50.978;5.058;2023-05-07T00:09:56;15.60;99.90
17425;DHT22;8830;50.978;5.058;2023-05-07T00:12:23;15.60;99.90
17425;DHT22;8830;50.978;5.058;2023-05-07T00:14:51;15.70;99.90
17425;DHT22;8830;50.978;5.058;2023-05-07T00:17:18;15.70;99.90
17425;DHT22;8830;50.978;5.058;2023-05-07T00:19:45;15.70;99.90
17425;DHT22;8830;50.978;5.058;2023-05-07T00:22:12;15.80;99.90
17425;DHT22;8830;50.978;5.058;2023-05-07T00:24:41;15.80;99.90
17425;DHT22;8830;50.978;5.058;2023-05-07T00:27:08;15.80;99.90
17425;DHT22;8830;50.978;5.058;2023-05-07T00:32:03;15.70;99.90
17425;DHT22;8830;50.978;5.058;2023-05-07T00:34:30;15.70;99.90
17425;DHT22;8830;50.978;5.058;2023-05-07T00:36:57;15.60;99.90
17425;DHT22;8830;50.978;5.058;2023-05-07T00:39:24;15.60;99.90
17425;DHT22;8830;50.978;5.058;2023-05-07T00:41:53;15.60;99.90
17425;DHT22;8830;50.978;5.058;2023-05-07T00:46:47;15.50;99.90
17425;DHT22;8830;50.978;5.058;2023-05-07T00:49:15;15.40;99.90
17425;DHT22;8830;50.978;5.058;2023-05-07T00:51:43;15.40;99.90
17425;DHT22;8830;50.978;5.058;2023-05-07T00:54:11;15.30;99.90
17425;DHT22;8830;50.978;5.058;2023-05-07T00:56:38;15.30;99.90
17425;DHT22;8830;50.978;5.058;2023-05-07T00:59:07;15.20;99.90
17425;DHT22;8830;50.978;5.058;2023-05-07T01:01:34;15.20;99.90
17425;DHT22;8830;50.978;5.058;2023-05-07T01:04:02;15.30;99.90
17425;DHT22;8830;50.978;5.058;2023-05-07T01:06:31;15.40;99.90
17425;DHT22;8830;50.978;5.058;2023-05-07T01:08:59;15.40;99.90
17425;DHT22;8830;50.978;5.058;2023-05-07T01:11:28;15.40;99.90
17425;DHT22;8830;50.978;5.058;2023-05-07T01:13:56;15.40;99.90
17425;DHT22;8830;50.978;5.058;2023-05-07T01:16:26;15.40;99.90
17425;DHT22;8830;50.978;5.058;2023-05-07T01:18:54;15.50;99.90
17425;DHT22;8830;50.978;5.058;2023-05-07T01:21:25;15.50;99.90
17425;DHT22;8830;50.978;5.058;2023-05-07T01:23:54;15.50;99.90
17425;DHT22;8830;50.978;5.058;2023-05-07T01:26:22;15.50;99.90
17425;DHT22;8830;50.978;5.058;2023-05-07T01:28:49;15.50;99.90
17425;DHT22;8830;50.978;5.058;2023-05-07T01:31:17;15.50;99.90
17425;DHT22;8830;50.978;5.058;2023-05-07T01:33:45;15.50;99.90
17425;DHT22;8830;50.978;5.058;2023-05-07T01:36:13;15.50;99.90
17425;DHT22;8830;50.978;5.058;2023-05-07T01:38:42;15.50;99.90
17425;DHT22;8830;50.978;5.058;2023-05-07T01:41:11;15.40;99.90
17425;DHT22;8830;50.978;5.058;2023-05-07T01:43:40;15.20;99.90
17425;DHT22;8830;50.978;5.058;2023-05-07T01:46:08;15.30;99.90
17425;DHT22;8830;50.978;5.058;2023-05-07T01:48:35;15.30;99.90
17425;DHT22;8830;50.978;5.058;2023-05-07T01:51:04;15.20;99.90
17425;DHT22;8830;50.978;5.058;2023-05-07T01:53:35;15.10;99.90
17425;DHT22;8830;50.978;5.058;2023-05-07T01:56:03;15.10;99.90
17425;DHT22;8830;50.978;5.058;2023-05-07T01:58:32;15.20;99.90
17425;DHT22;8830;50.978;5.058;2023-05-07T02:00:59;15.20;99.90
17425;DHT22;8830;50.978;5.058;2023-05-07T02:03:27;15.20;99.90
17425;DHT22;8830;50.978;5.058;2023-05-07T02:05:54;15.20;99.90
17425;DHT22;8830;50.978;5.058;2023-05-07T02:08:21;15.30;99.90
17425;DHT22;8830;50.978;5.058;2023-05-07T02:13:17;15.40;99.90
17425;DHT22;8830;50.978;5.058;2023-05-07T02:15:47;15.40;99.90
17425;DHT22;8830;50.978;5.058;2023-05-07T02:18:16;15.30;99.90
17425;DHT22;8830;50.978;5.058;2023-05-07T02:20:43;15.30;99.90
17425;DHT22;8830;50.978;5.058;2023-05-07T02:23:11;15.30;99.90
17425;DHT22;8830;50.978;5.058;2023-05-07T02:25:38;15.30;99.90
17425;DHT22;8830;50.978;5.058;2023-05-07T02:28:05;15.30;99.90
17425;DHT22;8830;50.978;5.058;2023-05-07T02:30:32;15.30;99.90
17425;DHT22;8830;50.978;5.058;2023-05-07T02:33:01;15.30;99.90
17425;DHT22;8830;50.978;5.058;2023-05-07T02:35:28;15.30;99.90
17425;DHT22;8830;50.978;5.058;2023-05-07T02:37:55;15.30;99.90
17425;DHT22;8830;50.978;5.058;2023-05-07T02:40:22;15.30;99.90
17425;DHT22;8830;50.978;5.058;2023-05-07T02:42:50;15.20;99.90
17425;DHT22;8830;50.978;5.058;2023-05-07T02:45:17;15.30;99.90
17425;DHT22;8830;50.978;5.058;2023-05-07T02:47:44;15.20;99.90
17425;DHT22;8830;50.978;5.058;2023-05-07T02:50:13;15.20;99.90
17425;DHT22;8830;50.978;5.058;2023-05-07T02:52:40;15.20;99.90
17425;DHT22;8830;50.978;5.058;2023-05-07T02:55:08;15.20;99.90
17425;DHT22;8830;50.978;5.058;2023-05-07T02:57:35;15.20;99.90
17425;DHT22;8830;50.978;5.058;2023-05-07T03:00:11;15.20;99.90
17425;DHT22;8830;50.978;5.058;2023-05-07T03:02:38;15.20;99.90
17425;DHT22;8830;50.978;5.058;2023-05-07T03:05:06;15.10;99.90
17425;DHT22;8830;50.978;5.058;2023-05-07T03:07:35;15.10;99.90
17425;DHT22;8830;50.978;5.058;2023-05-07T03:10:02;15.00;99.90
17425;DHT22;8830;50.978;5.058;2023-05-07T03:12:29;15.00;99.90
17425;DHT22;8830;50.978;5.058;2023-05-07T03:14:57;15.10;99.90
17425;DHT22;8830;50.978;5.058;2023-05-07T03:17:25;15.20;99.90
17425;DHT22;8830;50.978;5.058;2023-05-07T03:19:52;15.10;99.90
17425;DHT22;8830;50.978;5.058;2023-05-07T03:22:19;15.10;99.90
17425;DHT22;8830;50.978;5.058;2023-05-07T03:24:47;15.10;99.90
17425;DHT22;8830;50.978;5.058;2023-05-07T03:27:14;15.10;99.90
17425;DHT22;8830;50.978;5.058;2023-05-07T03:29:41;15.10;99.90
17425;DHT22;8830;50.978;5.058;2023-05-07T03:32:10;15.10;99.90
17425;DHT22;8830;50.978;5.058;2023-05-07T03:34:37;15.10;99.90
17425;DHT22;8830;50.978;5.058;2023-05-07T03:37:04;15.10;99.90
17425;DHT22;8830;50.978;5.058;2023-05-07T03:39:32;15.10;99.90
17425;DHT22;8830;50.978;5.058;2023-05-07T03:42:01;15.10;99.90
17425;DHT22;8830;50.978;5.058;2023-05-07T03:44:28;15.30;99.90
17425;DHT22;8830;50.978;5.058;2023-05-07T03:49:22;15.30;99.90
17425;DHT22;8830;50.978;5.058;2023-05-07T03:51:50;15.30;99.90
17425;DHT22;8830;50.978;5.058;2023-05-07T03:54:17;15.30;99.90
17425;DHT22;8830;50.978;5.058;2023-05-07T03:56:44;15.30;99.90
17425;DHT22;8830;50.978;5.058;2023-05-07T03:59:13;15.20;99.90
17425;DHT22;8830;50.978;5.058;2023-05-07T04:01:40;15.10;99.90
17425;DHT22;8830;50.978;5.058;2023-05-07T04:04:08;15.20;99.90
17425;DHT22;8830;50.978;5.058;2023-05-07T04:06:35;15.10;99.90
17425;DHT22;8830;50.978;5.058;2023-05-07T04:11:30;15.10;99.90
17425;DHT22;8830;50.978;5.058;2023-05-07T04:16:26;15.10;99.90
17425;DHT22;8830;50.978;5.058;2023-05-07T04:18:53;15.10;99.90
17425;DHT22;8830;50.978;5.058;2023-05-07T04:21:20;15.10;99.90
17425;DHT22;8830;50.978;5.058;2023-05-07T04:23:48;15.10;99.90
17425;DHT22;8830;50.978;5.058;2023-05-07T04:26:16;15.30;99.90
17425;DHT22;8830;50.978;5.058;2023-05-07T04:28:43;15.10;99.90
17425;DHT22;8830;50.978;5.058;2023-05-07T04:36:10;15.20;99.90
17425;DHT22;8830;50.978;5.058;2023-05-07T04:38:38;15.30;99.90
17425;DHT22;8830;50.978;5.058;2023-05-07T04:41:08;15.20;99.90
17425;DHT22;8830;50.978;5.058;2023-05-07T04:43:35;15.30;99.90
17425;DHT22;8830;50.978;5.058;2023-05-07T04:46:03;15.30;99.90
17425;DHT22;8830;50.978;5.058;2023-05-07T04:48:30;15.40;99.90
17425;DHT22;8830;50.978;5.058;2023-05-07T04:50:58;15.40;99.90
17425;DHT22;8830;50.978;5.058;2023-05-07T04:53:26;15.40;99.90
17425;DHT22;8830;50.978;5.058;2023-05-07T04:55:55;15.50;99.90
17425;DHT22;8830;50.978;5.058;2023-05-07T04:58:23;15.50;99.90
17425;DHT22;8830;50.978;5.058;2023-05-07T05:00:51;15.40;99.90
17425;DHT22;8830;50.978;5.058;2023-05-07T05:03:18;15.50;99.90
17425;DHT22;8830;50.978;5.058;2023-05-07T05:05:45;15.50;99.90
17425;DHT22;8830;50.978;5.058;2023-05-07T05:08:14;15.50;99.90
17425;DHT22;8830;50.978;5.058;2023-05-07T05:10:41;15.50;99.90
17425;DHT22;8830;50.978;5.058;2023-05-07T05:13:09;15.60;99.90
17425;DHT22;8830;50.978;5.058;2023-05-07T05:15:38;15.50;99.90
17425;DHT22;8830;50.978;5.058;2023-05-07T05:18:05;15.60;99.90
17425;DHT22;8830;50.978;5.058;2023-05-07T05:20:32;15.70;99.90
17425;DHT22;8830;50.978;5.058;2023-05-07T05:22:59;15.70;99.90
17425;DHT22;8830;50.978;5.058;2023-05-07T05:25:28;15.80;99.90
17425;DHT22;8830;50.978;5.058;2023-05-07T05:27:55;15.80;99.90
17425;DHT22;8830;50.978;5.058;2023-05-07T05:30:22;15.90;99.90
17425;DHT22;8830;50.978;5.058;2023-05-07T05:32:49;16.00;99.90
17425;DHT22;8830;50.978;5.058;2023-05-07T05:35:17;16.00;99.90
17425;DHT22;8830;50.978;5.058;2023-05-07T05:37:45;16.00;99.90
17425;DHT22;8830;50.978;5.058;2023-05-07T05:40:12;16.00;99.90
17425;DHT22;8830;50.978;5.058;2023-05-07T05:42:41;16.20;99.90
17425;DHT22;8830;50.978;5.058;2023-05-07T05:45:09;16.30;99.90
17425;DHT22;8830;50.978;5.058;2023-05-07T05:47:37;16.50;99.90
17425;DHT22;8830;50.978;5.058;2023-05-07T05:50:05;16.60;99.90
17425;DHT22;8830;50.978;5.058;2023-05-07T05:52:34;16.80;99.90
17425;DHT22;8830;50.978;5.058;2023-05-07T05:55:01;16.80;99.90
17425;DHT22;8830;50.978;5.058;2023-05-07T05:57:28;16.90;99.90
17425;DHT22;8830;50.978;5.058;2023-05-07T05:59:59;16.60;99.90
17425;DHT22;8830;50.978;5.058;2023-05-07T06:02:27;16.60;99.90
17425;DHT22;8830;50.978;5.058;2023-05-07T06:04:54;16.80;99.90
17425;DHT22;8830;50.978;5.058;2023-05-07T06:07:21;16.70;99.90
17425;DHT22;8830;50.978;5.058;2023-05-07T06:09:48;16.60;99.90
17425;DHT22;8830;50.978;5.058;2023-05-07T06:12:15;16.70;99.90
17425;DHT22;8830;50.978;5.058;2023-05-07T06:14:43;16.70;99.90
17425;DHT22;8830;50.978;5.058;2023-05-07T06:17:11;16.70;99.90
17425;DHT22;8830;50.978;5.058;2023-05-07T06:19:39;16.70;99.90
17425;DHT22;8830;50.978;5.058;2023-05-07T06:22:06;16.80;99.90
17425;DHT22;8830;50.978;5.058;2023-05-07T06:24:34;16.90;99.90
17425;DHT22;8830;50.978;5.058;2023-05-07T06:27:01;16.90;99.90
17425;DHT22;8830;50.978;5.058;2023-05-07T06:29:28;17.00;99.90
17425;DHT22;8830;50.978;5.058;2023-05-07T06:34:25;17.30;99.90
17425;DHT22;8830;50.978;5.058;2023-05-07T06:36:52;17.40;99.90
17425;DHT22;8830;50.978;5.058;2023-05-07T06:39:20;17.60;99.90
17425;DHT22;8830;50.978;5.058;2023-05-07T06:41:47;17.90;99.90
17425;DHT22;8830;50.978;5.058;2023-05-07T06:44:14;18.00;99.90
17425;DHT22;8830;50.978;5.058;2023-05-07T06:46:41;18.20;99.90
17425;DHT22;8830;50.978;5.058;2023-05-07T06:49:08;18.40;99.90
17425;DHT22;8830;50.978;5.058;2023-05-07T06:51:37;18.50;99.90
17425;DHT22;8830;50.978;5.058;2023-05-07T06:54:04;18.60;99.90
17425;DHT22;8830;50.978;5.058;2023-05-07T06:56:32;18.80;99.90
17425;DHT22;8830;50.978;5.058;2023-05-07T06:59:00;19.10;99.90
17425;DHT22;8830;50.978;5.058;2023-05-07T07:01:28;19.40;99.90
17425;DHT22;8830;50.978;5.058;2023-05-07T07:03:55;19.80;99.90
17425;DHT22;8830;50.978;5.058;2023-05-07T07:06:22;20.10;99.90
17425;DHT22;8830;50.978;5.058;2023-05-07T07:08:50;20.20;99.90
17425;DHT22;8830;50.978;5.058;2023-05-07T07:11:17;20.00;99.90
17425;DHT22;8830;50.978;5.058;2023-05-07T07:13:45;20.00;99.90
17425;DHT22;8830;50.978;5.058;2023-05-07T07:16:12;19.90;99.90
17425;DHT22;8830;50.978;5.058;2023-05-07T07:18:39;19.80;99.90
17425;DHT22;8830;50.978;5.058;2023-05-07T07:21:07;19.80;99.90
17425;DHT22;8830;50.978;5.058;2023-05-07T07:23:34;19.70;99.90
17425;DHT22;8830;50.978;5.058;2023-05-07T07:26:02;19.80;99.90
17425;DHT22;8830;50.978;5.058;2023-05-07T07:28:29;19.90;99.90
17425;DHT22;8830;50.978;5.058;2023-05-07T07:30:57;19.90;99.90
17425;DHT22;8830;50.978;5.058;2023-05-07T07:33:24;19.70;99.90
17425;DHT22;8830;50.978;5.058;2023-05-07T07:35:51;19.60;99.90
17425;DHT22;8830;50.978;5.058;2023-05-07T07:38:18;19.80;99.90
17425;DHT22;8830;50.978;5.058;2023-05-07T07:40:47;20.10;99.90
17425;DHT22;8830;50.978;5.058;2023-05-07T07:43:16;20.40;99.90
17425;DHT22;8830;50.978;5.058;2023-05-07T07:45:44;20.40;99.90
17425;DHT22;8830;50.978;5.058;2023-05-07T07:48:12;20.70;99.90
17425;DHT22;8830;50.978;5.058;2023-05-07T07:50:39;20.90;99.90
17425;DHT22;8830;50.978;5.058;2023-05-07T07:53:06;21.10;99.90
17425;DHT22;8830;50.978;5.058;2023-05-07T07:55:38;21.20;99.90
17425;DHT22;8830;50.978;5.058;2023-05-07T07:58:05;21.50;99.90
17425;DHT22;8830;50.978;5.058;2023-05-07T08:00:33;21.80;99.90
17425;DHT22;8830;50.978;5.058;2023-05-07T08:03:02;22.00;99.90
17425;DHT22;8830;50.978;5.058;2023-05-07T08:05:32;22.20;99.90
17425;DHT22;8830;50.978;5.058;2023-05-07T08:07:59;22.40;99.90
17425;DHT22;8830;50.978;5.058;2023-05-07T08:10:26;22.40;99.90
17425;DHT22;8830;50.978;5.058;2023-05-07T08:12:53;22.30;99.90
17425;DHT22;8830;50.978;5.058;2023-05-07T08:15:21;22.30;99.90
17425;DHT22;8830;50.978;5.058;2023-05-07T08:17:50;22.00;99.90
17425;DHT22;8830;50.978;5.058;2023-05-07T08:20:17;22.10;99.90
17425;DHT22;8830;50.978;5.058;2023-05-07T08:22:45;22.20;99.90
17425;DHT22;8830;50.978;5.058;2023-05-07T08:25:12;22.30;99.90
17425;DHT22;8830;50.978;5.058;2023-05-07T08:27:39;22.10;99.90
17425;DHT22;8830;50.978;5.058;2023-05-07T08:30:07;21.90;99.90
17425;DHT22;8830;50.978;5.058;2023-05-07T08:32:35;22.20;99.90
17425;DHT22;8830;50.978;5.058;2023-05-07T08:35:04;22.20;99.90
17425;DHT22;8830;50.978;5.058;2023-05-07T08:37:32;22.00;99.90
17425;DHT22;8830;50.978;5.058;2023-05-07T08:39:59;21.70;99.90
17425;DHT22;8830;50.978;5.058;2023-05-07T08:42:29;21.60;99.90
17425;DHT22;8830;50.978;5.058;2023-05-07T08:44:59;21.70;99.90
17425;DHT22;8830;50.978;5.058;2023-05-07T08:47:34;21.70;99.90
17425;DHT22;8830;50.978;5.058;2023-05-07T08:50:03;21.40;99.90
17425;DHT22;8830;50.978;5.058;2023-05-07T08:52:32;21.40;99.90
17425;DHT22;8830;50.978;5.058;2023-05-07T08:54:59;21.40;99.90
17425;DHT22;8830;50.978;5.058;2023-05-07T08:57:26;21.50;99.90
17425;DHT22;8830;50.978;5.058;2023-05-07T08:59:54;21.70;99.90
17425;DHT22;8830;50.978;5.058;2023-05-07T09:02:21;22.00;99.90
17425;DHT22;8830;50.978;5.058;2023-05-07T09:04:48;22.20;99.90
17425;DHT22;8830;50.978;5.058;2023-05-07T09:07:19;21.90;99.90
17425;DHT22;8830;50.978;5.058;2023-05-07T09:09:46;22.00;99.90
17425;DHT22;8830;50.978;5.058;2023-05-07T09:12:14;22.00;99.90
17425;DHT22;8830;50.978;5.058;2023-05-07T09:14:41;22.00;99.90
17425;DHT22;8830;50.978;5.058;2023-05-07T09:17:08;22.20;99.90
17425;DHT22;8830;50.978;5.058;2023-05-07T09:19:35;22.40;99.90
17425;DHT22;8830;50.978;5.058;2023-05-07T09:22:05;22.50;99.90
17425;DHT22;8830;50.978;5.058;2023-05-07T09:24:34;22.60;99.90
17425;DHT22;8830;50.978;5.058;2023-05-07T09:27:03;22.70;99.90
17425;DHT22;8830;50.978;5.058;2023-05-07T09:29:31;22.90;99.90
17425;DHT22;8830;50.978;5.058;2023-05-07T09:32:05;22.90;99.90
17425;DHT22;8830;50.978;5.058;2023-05-07T09:34:33;22.80;99.90
17425;DHT22;8830;50.978;5.058;2023-05-07T09:37:03;22.70;99.90
17425;DHT22;8830;50.978;5.058;2023-05-07T09:39:40;22.40;99.90
17425;DHT22;8830;50.978;5.058;2023-05-07T09:42:08;22.60;99.90
17425;DHT22;8830;50.978;5.058;2023-05-07T09:44:35;22.60;99.90
17425;DHT22;8830;50.978;5.058;2023-05-07T09:47:05;22.60;99.90
17425;DHT22;8830;50.978;5.058;2023-05-07T09:49:34;22.60;99.90
17425;DHT22;8830;50.978;5.058;2023-05-07T09:52:03;22.50;99.90
17425;DHT22;8830;50.978;5.058;2023-05-07T09:54:33;22.30;99.90
17425;DHT22;8830;50.978;5.058;2023-05-07T09:57:03;22.20;99.90
17425;DHT22;8830;50.978;5.058;2023-05-07T09:59:32;22.10;99.90
17425;DHT22;8830;50.978;5.058;2023-05-07T10:02:00;22.10;99.90
17425;DHT22;8830;50.978;5.058;2023-05-07T10:04:28;21.60;99.90
17425;DHT22;8830;50.978;5.058;2023-05-07T10:06:56;21.70;99.90
17425;DHT22;8830;50.978;5.058;2023-05-07T10:09:23;21.70;99.90
17425;DHT22;8830;50.978;5.058;2023-05-07T10:11:51;21.50;99.90
17425;DHT22;8830;50.978;5.058;2023-05-07T10:14:21;21.20;99.90
17425;DHT22;8830;50.978;5.058;2023-05-07T10:16:49;20.90;99.90
17425;DHT22;8830;50.978;5.058;2023-05-07T10:19:18;20.70;99.90
17425;DHT22;8830;50.978;5.058;2023-05-07T10:21:55;20.70;99.90
17425;DHT22;8830;50.978;5.058;2023-05-07T10:24:26;20.50;99.90
17425;DHT22;8830;50.978;5.058;2023-05-07T10:26:55;20.40;99.90
17425;DHT22;8830;50.978;5.058;2023-05-07T10:29:39;20.40;99.90
17425;DHT22;8830;50.978;5.058;2023-05-07T10:32:19;20.40;99.90
17425;DHT22;8830;50.978;5.058;2023-05-07T10:34:54;20.50;99.90
17425;DHT22;8830;50.978;5.058;2023-05-07T10:37:23;20.40;99.90
17425;DHT22;8830;50.978;5.058;2023-05-07T10:39:51;20.30;99.90
17425;DHT22;8830;50.978;5.058;2023-05-07T10:42:18;20.40;99.90
17425;DHT22;8830;50.978;5.058;2023-05-07T10:44:47;20.20;99.90
17425;DHT22;8830;50.978;5.058;2023-05-07T10:47:16;20.00;99.90
17425;DHT22;8830;50.978;5.058;2023-05-07T10:50:20;20.00;99.90
17425;DHT22;8830;50.978;5.058;2023-05-07T10:53:22;19.90;99.90
17425;DHT22;8830;50.978;5.058;2023-05-07T10:56:24;19.90;99.90
17425;DHT22;8830;50.978;5.058;2023-05-07T10:58:53;19.80;99.90
17425;DHT22;8830;50.978;5.058;2023-05-07T11:04:26;19.80;99.90
17425;DHT22;8830;50.978;5.058;2023-05-07T11:07:24;19.80;99.90
17425;DHT22;8830;50.978;5.058;2023-05-07T11:09:59;19.80;99.90
17425;DHT22;8830;50.978;5.058;2023-05-07T11:12:48;19.70;99.90
17425;DHT22;8830;50.978;5.058;2023-05-07T11:15:43;19.70;99.90
17425;DHT22;8830;50.978;5.058;2023-05-07T11:18:11;19.70;99.90
17425;DHT22;8830;50.978;5.058;2023-05-07T11:20:48;19.50;99.90
17425;DHT22;8830;50.978;5.058;2023-05-07T11:23:56;19.50;99.90
17425;DHT22;8830;50.978;5.058;2023-05-07T11:26:24;19.50;99.90
17425;DHT22;8830;50.978;5.058;2023-05-07T11:28:52;19.60;99.90
17425;DHT22;8830;50.978;5.058;2023-05-07T11:31:25;19.60;99.90
17425;DHT22;8830;50.978;5.058;2023-05-07T11:33:54;19.60;99.90
17425;DHT22;8830;50.978;5.058;2023-05-07T11:36:24;19.70;99.90
17425;DHT22;8830;50.978;5.058;2023-05-07T11:38:52;19.60;99.90
17425;DHT22;8830;50.978;5.058;2023-05-07T11:41:19;19.70;99.90
17425;DHT22;8830;50.978;5.058;2023-05-07T11:43:56;19.90;99.90
17425;DHT22;8830;50.978;5.058;2023-05-07T11:46:23;19.90;99.90
17425;DHT22;8830;50.978;5.058;2023-05-07T11:48:51;19.90;99.90
17425;DHT22;8830;50.978;5.058;2023-05-07T11:51:21;19.90;99.90
17425;DHT22;8830;50.978;5.058;2023-05-07T11:53:52;20.10;99.90
17425;DHT22;8830;50.978;5.058;2023-05-07T11:56:19;20.00;99.90
17425;DHT22;8830;50.978;5.058;2023-05-07T11:58:47;20.10;99.90
17425;DHT22;8830;50.978;5.058;2023-05-07T12:01:15;20.10;99.90
17425;DHT22;8830;50.978;5.058;2023-05-07T12:03:44;20.10;99.90
17425;DHT22;8830;50.978;5.058;2023-05-07T12:06:14;20.20;99.90
17425;DHT22;8830;50.978;5.058;2023-05-07T12:08:42;20.30;99.90
17425;DHT22;8830;50.978;5.058;2023-05-07T12:11:23;20.00;99.90
17425;DHT22;8830;50.978;5.058;2023-05-07T12:13:50;20.30;99.90
17425;DHT22;8830;50.978;5.058;2023-05-07T12:16:18;20.40;99.90
17425;DHT22;8830;50.978;5.058;2023-05-07T12:18:46;20.30;99.90
17425;DHT22;8830;50.978;5.058;2023-05-07T12:21:14;20.40;99.90
17425;DHT22;8830;50.978;5.058;2023-05-07T12:23:43;20.50;99.90
17425;DHT22;8830;50.978;5.058;2023-05-07T12:26:11;20.80;99.90
17425;DHT22;8830;50.978;5.058;2023-05-07T12:28:39;20.50;99.90
17425;DHT22;8830;50.978;5.058;2023-05-07T12:31:06;20.60;99.90
17425;DHT22;8830;50.978;5.058;2023-05-07T12:33:34;20.60;99.90
17425;DHT22;8830;50.978;5.058;2023-05-07T12:36:06;20.50;99.90
17425;DHT22;8830;50.978;5.058;2023-05-07T12:38:38;20.40;99.90
17425;DHT22;8830;50.978;5.058;2023-05-07T12:41:07;20.70;99.90
17425;DHT22;8830;50.978;5.058;2023-05-07T12:43:35;20.70;99.90
17425;DHT22;8830;50.978;5.058;2023-05-07T12:46:04;20.80;99.90
17425;DHT22;8830;50.978;5.058;2023-05-07T12:48:32;20.90;99.90
17425;DHT22;8830;50.978;5.058;2023-05-07T12:51:00;20.80;99.90
17425;DHT22;8830;50.978;5.058;2023-05-07T12:53:29;20.80;99.90
17425;DHT22;8830;50.978;5.058;2023-05-07T12:55:58;20.70;99.90
17425;DHT22;8830;50.978;5.058;2023-05-07T12:58:26;20.60;99.90
17425;DHT22;8830;50.978;5.058;2023-05-07T13:00:59;20.50;99.90
17425;DHT22;8830;50.978;5.058;2023-05-07T13:03:28;20.50;99.90
17425;DHT22;8830;50.978;5.058;2023-05-07T13:05:56;20.50;99.90
17425;DHT22;8830;50.978;5.058;2023-05-07T13:08:28;20.60;99.90
17425;DHT22;8830;50.978;5.058;2023-05-07T13:10:57;20.60;99.90
17425;DHT22;8830;50.978;5.058;2023-05-07T13:13:24;20.90;99.90
17425;DHT22;8830;50.978;5.058;2023-05-07T13:15:51;20.70;99.90
17425;DHT22;8830;50.978;5.058;2023-05-07T13:18:19;20.70;99.90
17425;DHT22;8830;50.978;5.058;2023-05-07T13:20:47;20.70;99.90
17425;DHT22;8830;50.978;5.058;2023-05-07T13:23:14;20.70;99.90
17425;DHT22;8830;50.978;5.058;2023-05-07T13:25:41;20.50;99.90
17425;DHT22;8830;50.978;5.058;2023-05-07T13:28:08;20.50;99.90
17425;DHT22;8830;50.978;5.058;2023-05-07T13:30:37;20.40;99.90
17425;DHT22;8830;50.978;5.058;2023-05-07T13:33:04;20.50;99.90
17425;DHT22;8830;50.978;5.058;2023-05-07T13:35:32;20.50;99.90
17425;DHT22;8830;50.978;5.058;2023-05-07T13:37:59;20.40;99.90
17425;DHT22;8830;50.978;5.058;2023-05-07T13:40:27;20.40;99.90
17425;DHT22;8830;50.978;5.058;2023-05-07T13:42:56;20.40;99.90
17425;DHT22;8830;50.978;5.058;2023-05-07T13:45:24;20.50;99.90
17425;DHT22;8830;50.978;5.058;2023-05-07T13:47:52;20.70;99.90
17425;DHT22;8830;50.978;5.058;2023-05-07T13:50:19;20.70;99.90
17425;DHT22;8830;50.978;5.058;2023-05-07T13:52:49;20.70;99.90
17425;DHT22;8830;50.978;5.058;2023-05-07T13:55:18;20.70;99.90
17425;DHT22;8830;50.978;5.058;2023-05-07T13:57:45;20.60;99.90
17425;DHT22;8830;50.978;5.058;2023-05-07T14:00:13;20.70;99.90
17425;DHT22;8830;50.978;5.058;2023-05-07T14:02:41;20.70;99.90
17425;DHT22;8830;50.978;5.058;2023-05-07T14:05:09;20.80;99.90
17425;DHT22;8830;50.978;5.058;2023-05-07T14:07:36;20.80;99.90
17425;DHT22;8830;50.978;5.058;2023-05-07T14:10:06;20.80;99.90
17425;DHT22;8830;50.978;5.058;2023-05-07T14:12:33;20.80;99.90
17425;DHT22;8830;50.978;5.058;2023-05-07T14:15:00;20.90;99.90
17425;DHT22;8830;50.978;5.058;2023-05-07T14:17:27;20.80;99.90
17425;DHT22;8830;50.978;5.058;2023-05-07T14:19:55;20.80;99.90
17425;DHT22;8830;50.978;5.058;2023-05-07T14:22:22;20.80;99.90
17425;DHT22;8830;50.978;5.058;2023-05-07T14:24:50;20.70;99.90
17425;DHT22;8830;50.978;5.058;2023-05-07T14:27:20;20.80;99.90
17425;DHT22;8830;50.978;5.058;2023-05-07T14:29:47;20.80;99.90
17425;DHT22;8830;50.978;5.058;2023-05-07T14:32:16;20.70;99.90
17425;DHT22;8830;50.978;5.058;2023-05-07T14:34:44;20.70;99.90
17425;DHT22;8830;50.978;5.058;2023-05-07T14:37:12;20.80;99.90
17425;DHT22;8830;50.978;5.058;2023-05-07T14:39:39;20.80;99.90
17425;DHT22;8830;50.978;5.058;2023-05-07T14:42:06;20.60;99.90
17425;DHT22;8830;50.978;5.058;2023-05-07T14:44:35;20.80;99.90
17425;DHT22;8830;50.978;5.058;2023-05-07T14:47:03;20.80;99.90
17425;DHT22;8830;50.978;5.058;2023-05-07T14:49:31;20.80;99.90
17425;DHT22;8830;50.978;5.058;2023-05-07T14:51:58;20.80;99.90
17425;DHT22;8830;50.978;5.058;2023-05-07T14:54:26;20.70;99.90
17425;DHT22;8830;50.978;5.058;2023-05-07T14:56:53;20.70;99.90
17425;DHT22;8830;50.978;5.058;2023-05-07T14:59:21;20.80;99.90
17425;DHT22;8830;50.978;5.058;2023-05-07T15:01:52;20.80;99.90
17425;DHT22;8830;50.978;5.058;2023-05-07T15:04:19;20.80;99.90
17425;DHT22;8830;50.978;5.058;2023-05-07T15:06:46;20.80;99.90
17425;DHT22;8830;50.978;5.058;2023-05-07T15:09:13;20.80;99.90
17425;DHT22;8830;50.978;5.058;2023-05-07T15:11:40;21.00;99.90
17425;DHT22;8830;50.978;5.058;2023-05-07T15:14:08;20.90;99.90
17425;DHT22;8830;50.978;5.058;2023-05-07T15:16:35;21.00;99.90
17425;DHT22;8830;50.978;5.058;2023-05-07T15:19:04;20.90;99.90
17425;DHT22;8830;50.978;5.058;2023-05-07T15:21:31;21.00;99.90
17425;DHT22;8830;50.978;5.058;2023-05-07T15:24:00;21.00;99.90
17425;DHT22;8830;50.978;5.058;2023-05-07T15:26:28;20.30;99.90
17425;DHT22;8830;50.978;5.058;2023-05-07T15:28:55;20.90;99.90
17425;DHT22;8830;50.978;5.058;2023-05-07T15:31:23;20.90;99.90
17425;DHT22;8830;50.978;5.058;2023-05-07T15:33:50;20.90;99.90
17425;DHT22;8830;50.978;5.058;2023-05-07T15:36:19;20.70;99.90
17425;DHT22;8830;50.978;5.058;2023-05-07T15:38:47;21.00;99.90
17425;DHT22;8830;50.978;5.058;2023-05-07T15:41:14;21.00;99.90
17425;DHT22;8830;50.978;5.058;2023-05-07T15:43:45;20.90;99.90
17425;DHT22;8830;50.978;5.058;2023-05-07T15:46:17;20.70;99.90
17425;DHT22;8830;50.978;5.058;2023-05-07T15:48:45;20.70;99.90
17425;DHT22;8830;50.978;5.058;2023-05-07T15:51:13;20.70;99.90
17425;DHT22;8830;50.978;5.058;2023-05-07T15:53:41;20.70;99.90
17425;DHT22;8830;50.978;5.058;2023-05-07T15:56:09;19.50;99.90
17425;DHT22;8830;50.978;5.058;2023-05-07T15:58:36;20.70;99.90
17425;DHT22;8830;50.978;5.058;2023-05-07T16:01:03;20.80;99.90
17425;DHT22;8830;50.978;5.058;2023-05-07T16:03:31;20.70;99.90
17425;DHT22;8830;50.978;5.058;2023-05-07T16:05:58;20.70;99.90
17425;DHT22;8830;50.978;5.058;2023-05-07T16:08:26;20.70;99.90
17425;DHT22;8830;50.978;5.058;2023-05-07T16:10:54;20.70;99.90
17425;DHT22;8830;50.978;5.058;2023-05-07T16:13:21;19.50;99.90
17425;DHT22;8830;50.978;5.058;2023-05-07T16:15:54;20.60;99.90
17425;DHT22;8830;50.978;5.058;2023-05-07T16:18:22;20.60;99.90